createdAt,value
2023-04-16T00:01:10.055Z,-0.02
2023-04-16T00:03:37.281Z,0.00
2023-04-16T00:06:04.549Z,-0.02
2023-04-16T00:08:31.525Z,-0.06
2023-04-16T00:10:58.705Z,-0.17
2023-04-16T00:13:27.552Z,-0.15
2023-04-16T00:15:54.442Z,-0.12
2023-04-16T00:18:21.613Z,-0.14
2023-04-16T00:20:49.285Z,-0.51
2023-04-16T00:23:16.943Z,-0.19
2023-04-16T00:25:44.233Z,-0.24
2023-04-16T00:28:11.223Z,-0.24
2023-04-16T00:30:38.447Z,-0.26
2023-04-16T00:33:05.663Z,-0.29
2023-04-16T00:35:32.608Z,-0.31
2023-04-16T00:37:59.616Z,-0.34
2023-04-16T00:40:30.001Z,-0.43
2023-04-16T00:42:56.860Z,-0.39
2023-04-16T00:45:23.911Z,-0.54
2023-04-16T00:47:51.289Z,-0.45
2023-04-16T00:50:18.728Z,-0.47
2023-04-16T00:52:47.657Z,-0.49
2023-04-16T00:55:17.823Z,-0.51
2023-04-16T00:57:45.534Z,-1.18
2023-04-16T01:00:13.160Z,-0.56
2023-04-16T01:02:40.377Z,-0.59
2023-04-16T01:05:07.562Z,-0.60
2023-04-16T01:07:35.926Z,-0.62
2023-04-16T01:10:03.807Z,-0.64
2023-04-16T01:12:31.208Z,-0.65
2023-04-16T01:14:58.268Z,-0.76
2023-04-16T01:17:25.436Z,-0.70
2023-04-16T01:19:52.426Z,-0.71
2023-04-16T01:22:19.357Z,-0.74
2023-04-16T01:24:46.633Z,-0.75
2023-04-16T01:27:13.731Z,-0.88
2023-04-16T01:29:40.917Z,-0.80
2023-04-16T01:32:08.010Z,-0.81
2023-04-16T01:34:37.060Z,-0.90
2023-04-16T01:37:04.259Z,-1.48
2023-04-16T01:39:31.382Z,-1.03
2023-04-16T01:41:58.389Z,-0.89
2023-04-16T01:44:25.621Z,-0.91
2023-04-16T01:46:52.833Z,-0.93
2023-04-16T01:49:21.849Z,-0.96
2023-04-16T01:51:48.885Z,-0.97
2023-04-16T01:54:16.085Z,-1.02
2023-04-16T01:56:43.078Z,-1.00
2023-04-16T01:59:10.483Z,-1.03
2023-04-16T02:01:42.200Z,-1.04
2023-04-16T02:04:10.424Z,-1.05
2023-04-16T02:06:37.995Z,-1.08
2023-04-16T02:09:05.101Z,-1.12
2023-04-16T02:11:32.365Z,-1.13
2023-04-16T02:13:59.536Z,-1.21
2023-04-16T02:16:26.695Z,-1.17
2023-04-16T02:18:59.569Z,-1.22
2023-04-16T02:21:30.205Z,-1.22
2023-04-16T02:23:57.766Z,-1.24
2023-04-16T02:26:29.237Z,-1.26
2023-04-16T02:29:00.463Z,-1.30
2023-04-16T02:31:35.549Z,-1.28
2023-04-16T02:34:03.458Z,-1.46
2023-04-16T02:36:31.822Z,-1.44
2023-04-16T02:38:59.848Z,-1.35
2023-04-16T02:41:26.847Z,-1.36
2023-04-16T02:43:53.972Z,-1.44
2023-04-16T02:46:20.936Z,-1.39
2023-04-16T02:48:47.979Z,-1.71
2023-04-16T02:51:14.927Z,-2.09
2023-04-16T02:53:45.917Z,-1.44
2023-04-16T02:56:13.456Z,-1.49
2023-04-16T02:58:40.587Z,-1.48
2023-04-16T03:01:07.608Z,-1.51
2023-04-16T03:03:34.760Z,-1.50
2023-04-16T03:06:01.607Z,-1.53
2023-04-16T03:08:28.829Z,-1.56
2023-04-16T03:10:55.765Z,-1.57
2023-04-16T03:13:22.735Z,-1.60
2023-04-16T03:15:50.106Z,-1.81
2023-04-16T03:18:17.277Z,-1.62
2023-04-16T03:20:44.198Z,-1.62
2023-04-16T03:23:11.908Z,-1.73
2023-04-16T03:25:40.623Z,-1.64
2023-04-16T03:28:08.997Z,-1.66
2023-04-16T03:30:36.246Z,-1.67
2023-04-16T03:33:04.008Z,-1.69
2023-04-16T03:35:31.284Z,-1.74
2023-04-16T03:37:58.197Z,-1.92
2023-04-16T03:40:26.162Z,-1.71
2023-04-16T03:42:53.597Z,-1.72
2023-04-16T03:45:20.592Z,-1.71
2023-04-16T03:47:52.844Z,-1.73
2023-04-16T03:50:22.601Z,-1.73
2023-04-16T03:52:49.542Z,-1.72
2023-04-16T03:55:17.764Z,-2.23
2023-04-16T03:57:45.332Z,-2.33
2023-04-16T04:00:15.051Z,-1.72
2023-04-16T04:02:51.038Z,-1.71
2023-04-16T04:05:19.904Z,-1.70
2023-04-16T04:07:47.776Z,-1.69
2023-04-16T04:10:15.708Z,-1.70
2023-04-16T04:12:43.453Z,-1.81
2023-04-16T04:15:11.674Z,-1.67
2023-04-16T04:17:38.701Z,-1.66
2023-04-16T04:20:06.369Z,-2.22
2023-04-16T04:22:33.361Z,-1.63
2023-04-16T04:25:00.840Z,-1.67
2023-04-16T04:27:30.650Z,-1.64
2023-04-16T04:29:58.349Z,-1.61
2023-04-16T04:32:25.762Z,-1.80
2023-04-16T04:34:52.795Z,-1.51
2023-04-16T04:37:21.118Z,-1.47
2023-04-16T04:39:48.291Z,-1.44
2023-04-16T04:42:18.283Z,-1.40
2023-04-16T04:44:46.191Z,-1.35
2023-04-16T04:47:14.139Z,-1.32
2023-04-16T04:49:41.210Z,-1.42
2023-04-16T04:52:08.650Z,-1.23
2023-04-16T04:54:35.925Z,-1.18
2023-04-16T04:57:02.899Z,-1.14
2023-04-16T04:59:30.761Z,-1.09
2023-04-16T05:01:57.964Z,-1.05
2023-04-16T05:04:24.981Z,-1.02
2023-04-16T05:06:51.968Z,-0.94
2023-04-16T05:09:19.086Z,-0.90
2023-04-16T05:11:45.943Z,-0.85
2023-04-16T05:14:12.894Z,-0.81
2023-04-16T05:16:39.883Z,-0.77
2023-04-16T05:19:06.930Z,-0.73
2023-04-16T05:21:34.133Z,-1.25
2023-04-16T05:24:01.406Z,-0.67
2023-04-16T05:26:28.266Z,-0.60
2023-04-16T05:28:55.270Z,-0.61
2023-04-16T05:31:22.414Z,-0.54
2023-04-16T05:33:49.347Z,-0.46
2023-04-16T05:36:16.220Z,-0.50
2023-04-16T05:38:43.582Z,-0.36
2023-04-16T05:41:10.706Z,-0.32
2023-04-16T05:43:37.616Z,-0.26
2023-04-16T05:46:05.086Z,-0.21
2023-04-16T05:48:32.110Z,-0.45
2023-04-16T05:50:58.991Z,-0.12
2023-04-16T05:53:26.335Z,-0.07
2023-04-16T05:55:53.510Z,-0.02
2023-04-16T05:58:20.476Z,-0.02
2023-04-16T06:00:47.718Z,0.09
2023-04-16T06:03:14.786Z,0.16
2023-04-16T06:05:41.837Z,0.23
2023-04-16T06:08:08.884Z,0.29
2023-04-16T06:10:35.733Z,0.36
2023-04-16T06:13:02.600Z,0.36
2023-04-16T06:15:29.868Z,0.45
2023-04-16T06:17:57.536Z,0.47
2023-04-16T06:20:25.469Z,0.59
2023-04-16T06:22:52.930Z,0.66
2023-04-16T06:25:19.928Z,0.73
2023-04-16T06:27:46.941Z,0.80
2023-04-16T06:30:15.884Z,0.87
2023-04-16T06:32:44.335Z,0.95
2023-04-16T06:35:11.616Z,1.03
2023-04-16T06:37:38.650Z,1.11
2023-04-16T06:40:06.298Z,1.12
2023-04-16T06:42:33.200Z,1.25
2023-04-16T06:45:00.215Z,1.32
2023-04-16T06:47:27.432Z,1.38
2023-04-16T06:49:54.353Z,1.45
2023-04-16T06:52:21.532Z,1.53
2023-04-16T06:54:48.708Z,1.57
2023-04-16T06:57:16.270Z,1.69
2023-04-16T06:59:44.444Z,1.75
2023-04-16T07:02:11.841Z,1.68
2023-04-16T07:04:38.917Z,1.89
2023-04-16T07:07:05.891Z,1.36
2023-04-16T07:09:32.897Z,2.02
2023-04-16T07:11:59.765Z,1.58
2023-04-16T07:14:26.794Z,2.20
2023-04-16T07:16:53.756Z,2.29
2023-04-16T07:19:21.159Z,2.38
2023-04-16T07:21:48.115Z,2.43
2023-04-16T07:24:15.855Z,2.52
2023-04-16T07:26:43.604Z,2.61
2023-04-16T07:29:10.916Z,2.69
2023-04-16T07:34:28.917Z,2.81
2023-04-16T07:36:55.952Z,2.89
2023-04-16T07:39:22.781Z,2.93
2023-04-16T07:41:49.765Z,3.00
2023-04-16T07:44:17.015Z,2.98
2023-04-16T07:46:47.534Z,3.14
2023-04-16T07:49:15.775Z,3.21
2023-04-16T07:51:42.741Z,3.29
2023-04-16T07:54:10.717Z,3.36
2023-04-16T07:56:37.753Z,3.37
2023-04-16T07:59:18.456Z,3.50
2023-04-16T08:01:48.655Z,3.33
2023-04-16T08:04:17.499Z,3.67
2023-04-16T08:06:44.534Z,3.78
2023-04-16T08:09:11.793Z,3.61
2023-04-16T08:11:38.779Z,3.94
2023-04-16T08:14:05.713Z,3.88
2023-04-16T08:16:32.624Z,4.08
2023-04-16T08:19:01.171Z,4.17
2023-04-16T08:21:28.560Z,4.25
2023-04-16T08:23:55.613Z,4.29
2023-04-16T08:26:22.474Z,4.40
2023-04-16T08:28:49.510Z,4.49
2023-04-16T08:31:16.713Z,4.57
2023-04-16T08:33:43.717Z,4.66
2023-04-16T08:36:11.190Z,4.75
2023-04-16T08:38:38.286Z,4.85
2023-04-16T08:41:09.407Z,4.93
2023-04-16T08:43:39.482Z,5.03
2023-04-16T08:46:08.996Z,5.12
2023-04-16T08:48:37.215Z,5.16
2023-04-16T08:51:09.412Z,5.29
2023-04-16T08:53:52.202Z,5.39
2023-04-16T08:56:23.146Z,5.49
2023-04-16T08:58:51.353Z,5.61
2023-04-16T09:01:19.435Z,5.70
2023-04-16T09:03:49.928Z,5.83
2023-04-16T09:06:18.422Z,5.92
2023-04-16T09:08:46.371Z,5.64
2023-04-16T09:11:20.527Z,5.76
2023-04-16T09:13:47.883Z,6.26
2023-04-16T09:16:15.316Z,6.33
2023-04-16T09:18:42.661Z,6.50
2023-04-16T09:21:11.130Z,6.50
2023-04-16T09:23:41.327Z,6.76
2023-04-16T09:26:08.420Z,6.90
2023-04-16T09:29:09.186Z,7.06
2023-04-16T09:31:56.356Z,7.21
2023-04-16T09:34:43.254Z,7.43
2023-04-16T09:37:39.468Z,7.68
2023-04-16T09:40:27.084Z,7.91
2023-04-16T09:43:17.529Z,8.14
2023-04-16T09:46:11.429Z,8.40
2023-04-16T09:48:59.478Z,8.63
2023-04-16T09:51:47.124Z,8.87
2023-04-16T09:54:34.233Z,9.14
2023-04-16T09:57:21.301Z,9.37
2023-04-16T10:00:09.333Z,9.52
2023-04-16T10:02:59.785Z,9.80
2023-04-16T10:05:46.993Z,10.00
2023-04-16T10:08:34.494Z,10.24
2023-04-16T10:11:22.500Z,10.34
2023-04-16T10:14:09.743Z,10.65
2023-04-16T10:16:57.108Z,10.82
2023-04-16T10:19:45.893Z,10.63
2023-04-16T10:22:32.847Z,11.20
2023-04-16T10:25:19.885Z,11.41
2023-04-16T10:28:07.842Z,11.58
2023-04-16T10:30:55.551Z,11.76
2023-04-16T10:33:50.460Z,11.93
2023-04-16T10:36:44.047Z,12.10
2023-04-16T10:39:32.411Z,12.25
2023-04-16T10:42:30.196Z,12.40
2023-04-16T10:45:19.743Z,12.55
2023-04-16T10:48:06.685Z,12.68
2023-04-16T10:50:57.659Z,12.80
2023-04-16T10:53:47.744Z,12.93
2023-04-16T10:56:35.178Z,13.03
2023-04-16T10:59:25.004Z,13.17
2023-04-16T11:02:14.969Z,13.04
2023-04-16T11:05:06.925Z,13.36
2023-04-16T11:07:55.115Z,13.29
2023-04-16T11:10:42.131Z,13.45
2023-04-16T11:13:32.952Z,13.69
2023-04-16T11:16:19.903Z,13.83
2023-04-16T11:19:06.969Z,13.93
2023-04-16T11:21:54.210Z,14.05
2023-04-16T11:24:41.351Z,14.14
2023-04-16T11:27:28.266Z,14.24
2023-04-16T11:30:22.795Z,14.29
2023-04-16T11:33:09.719Z,14.41
2023-04-16T11:35:57.371Z,14.04
2023-04-16T11:38:53.429Z,14.53
2023-04-16T11:41:40.960Z,14.43
2023-04-16T11:44:41.476Z,14.40
2023-04-16T11:47:28.662Z,14.42
2023-04-16T11:50:15.790Z,14.40
2023-04-16T11:53:03.068Z,14.59
2023-04-16T11:55:50.029Z,14.70
2023-04-16T11:58:37.177Z,14.81
2023-04-16T12:01:29.972Z,14.92
2023-04-16T12:04:22.380Z,15.03
2023-04-16T12:07:28.497Z,15.13
2023-04-16T12:10:26.541Z,15.20
2023-04-16T12:13:13.825Z,15.24
2023-04-16T12:16:17.046Z,15.29
2023-04-16T12:19:19.807Z,15.35
2023-04-16T12:22:08.601Z,15.39
2023-04-16T12:24:55.719Z,15.42
2023-04-16T12:27:43.087Z,15.35
2023-04-16T12:30:30.490Z,15.48
2023-04-16T12:33:37.546Z,15.50
2023-04-16T12:36:38.355Z,15.54
2023-04-16T12:39:25.327Z,15.59
2023-04-16T12:42:12.122Z,15.61
2023-04-16T12:44:59.307Z,15.60
2023-04-16T12:47:46.255Z,15.49
2023-04-16T12:50:33.461Z,15.63
2023-04-16T12:53:20.542Z,15.61
2023-04-16T12:56:07.683Z,15.55
2023-04-16T12:58:54.664Z,15.58
2023-04-16T13:01:42.664Z,15.28
2023-04-16T13:04:29.649Z,15.48
2023-04-16T13:07:17.109Z,15.51
2023-04-16T13:10:04.666Z,15.45
2023-04-16T13:12:51.697Z,15.35
2023-04-16T13:15:38.861Z,15.25
2023-04-16T13:18:25.789Z,15.13
2023-04-16T13:21:13.766Z,15.09
2023-04-16T13:24:00.872Z,15.04
2023-04-16T13:26:47.871Z,15.00
2023-04-16T13:29:34.827Z,14.97
2023-04-16T13:32:21.944Z,14.89
2023-04-16T13:35:09.108Z,14.83
2023-04-16T13:37:56.148Z,14.74
2023-04-16T13:40:43.176Z,14.68
2023-04-16T13:43:30.109Z,14.62
2023-04-16T13:46:17.226Z,14.53
2023-04-16T13:49:04.661Z,14.45
2023-04-16T13:51:51.542Z,14.37
2023-04-16T13:54:38.416Z,14.28
2023-04-16T13:57:25.418Z,14.17
2023-04-16T14:00:13.340Z,14.10
2023-04-16T14:03:02.564Z,14.08
2023-04-16T14:05:49.570Z,13.97
2023-04-16T14:08:36.541Z,13.82
2023-04-16T14:11:23.610Z,13.62
2023-04-16T14:14:10.813Z,13.58
2023-04-16T14:16:57.964Z,13.37
2023-04-16T14:19:45.215Z,13.45
2023-04-16T14:22:32.055Z,13.30
2023-04-16T14:25:19.505Z,13.28
2023-04-16T14:28:06.525Z,13.19
2023-04-16T14:30:53.532Z,12.68
2023-04-16T14:33:40.432Z,12.98
2023-04-16T14:36:27.450Z,12.96
2023-04-16T14:39:14.380Z,12.92
2023-04-16T14:42:01.320Z,12.86
2023-04-16T14:44:48.230Z,12.83
2023-04-16T14:47:35.309Z,12.74
2023-04-16T14:50:23.006Z,12.63
2023-04-16T14:53:10.939Z,12.59
2023-04-16T14:55:57.963Z,12.59
2023-04-16T14:58:45.767Z,12.55
2023-04-16T15:01:32.754Z,12.47
2023-04-16T15:04:20.157Z,12.32
2023-04-16T15:07:07.314Z,12.40
2023-04-16T15:09:54.717Z,12.38
2023-04-16T15:12:41.570Z,12.36
2023-04-16T15:15:29.196Z,12.21
2023-04-16T15:18:16.449Z,12.38
2023-04-16T15:21:03.609Z,12.38
2023-04-16T15:23:50.584Z,12.38
2023-04-16T15:26:37.564Z,12.38
2023-04-16T15:29:24.679Z,12.38
2023-04-16T15:32:11.758Z,12.42
2023-04-16T15:34:58.698Z,12.44
2023-04-16T15:37:45.789Z,12.43
2023-04-16T15:40:32.757Z,12.42
2023-04-16T15:43:19.690Z,12.42
2023-04-16T15:46:06.674Z,12.37
2023-04-16T15:48:53.583Z,12.44
2023-04-16T15:51:40.541Z,12.38
2023-04-16T15:54:27.559Z,12.40
2023-04-16T15:57:14.549Z,12.36
2023-04-16T16:02:51.734Z,12.16
2023-04-16T16:05:38.984Z,12.29
2023-04-16T16:08:26.042Z,12.03
2023-04-16T16:11:13.139Z,12.31
2023-04-16T16:13:59.946Z,12.29
2023-04-16T16:16:48.030Z,12.21
2023-04-16T16:19:35.178Z,12.13
2023-04-16T16:22:22.178Z,12.02
2023-04-16T16:25:11.459Z,11.90
2023-04-16T16:27:58.480Z,11.76
2023-04-16T16:30:45.529Z,11.63
2023-04-16T16:33:32.560Z,11.52
2023-04-16T16:36:19.482Z,11.42
2023-04-16T16:39:06.496Z,11.29
2023-04-16T16:41:53.495Z,11.19
2023-04-16T16:44:40.886Z,11.04
2023-04-16T16:47:27.882Z,10.95
2023-04-16T16:50:15.023Z,10.85
2023-04-16T16:53:02.054Z,10.71
2023-04-16T16:55:49.172Z,10.64
2023-04-16T16:58:36.094Z,10.49
2023-04-16T17:01:23.181Z,10.26
2023-04-16T17:04:10.300Z,10.22
2023-04-16T17:06:57.501Z,10.07
2023-04-16T17:09:44.459Z,9.94
2023-04-16T17:12:31.473Z,9.81
2023-04-16T17:15:21.217Z,9.57
2023-04-16T17:18:08.820Z,9.57
2023-04-16T17:20:55.814Z,9.46
2023-04-16T17:23:42.816Z,9.31
2023-04-16T17:26:29.661Z,9.21
2023-04-16T17:29:16.790Z,9.03
2023-04-16T17:32:03.823Z,8.95
2023-04-16T17:34:50.865Z,8.73
2023-04-16T17:37:37.773Z,8.62
2023-04-16T17:40:25.228Z,8.52
2023-04-16T17:43:12.011Z,8.41
2023-04-16T17:45:59.118Z,8.32
2023-04-16T17:48:45.909Z,8.23
2023-04-16T17:51:33.753Z,7.96
2023-04-16T17:54:20.590Z,7.99
2023-04-16T17:57:07.437Z,7.88
2023-04-16T17:59:54.386Z,7.78
2023-04-16T18:02:41.916Z,7.71
2023-04-16T18:05:29.251Z,7.63
2023-04-16T18:08:16.344Z,7.57
2023-04-16T18:11:03.194Z,7.50
2023-04-16T18:13:50.165Z,7.32
2023-04-16T18:16:37.095Z,7.35
2023-04-16T18:19:24.261Z,7.27
2023-04-16T18:22:11.510Z,6.89
2023-04-16T18:24:58.685Z,7.07
2023-04-16T18:27:45.912Z,6.95
2023-04-16T18:30:33.377Z,6.90
2023-04-16T18:33:48.616Z,6.80
2023-04-16T18:36:27.448Z,6.68
2023-04-16T18:39:15.107Z,6.45
2023-04-16T18:42:02.234Z,6.49
2023-04-16T18:44:49.183Z,6.38
2023-04-16T18:47:36.597Z,6.32
2023-04-16T18:50:23.645Z,6.27
2023-04-16T18:53:10.757Z,6.13
2023-04-16T18:55:57.567Z,6.05
2023-04-16T18:58:44.555Z,5.95
2023-04-16T19:01:31.422Z,5.66
2023-04-16T19:04:18.481Z,5.76
2023-04-16T19:07:05.522Z,5.71
2023-04-16T19:09:52.767Z,5.64
2023-04-16T19:12:39.648Z,5.57
2023-04-16T19:15:29.176Z,5.46
2023-04-16T19:18:18.507Z,5.40
2023-04-16T19:21:05.417Z,5.30
2023-04-16T19:23:52.647Z,5.27
2023-04-16T19:26:40.103Z,4.97
2023-04-16T19:29:26.985Z,5.14
2023-04-16T19:32:14.322Z,5.07
2023-04-16T19:35:01.223Z,5.01
2023-04-16T19:37:48.279Z,4.93
2023-04-16T19:40:35.067Z,4.89
2023-04-16T19:43:22.030Z,4.82
2023-04-16T19:46:09.924Z,4.77
2023-04-16T19:48:56.860Z,4.72
2023-04-16T19:51:43.763Z,4.66
2023-04-16T19:54:31.074Z,4.54
2023-04-16T19:57:18.103Z,4.57
2023-04-16T20:00:05.577Z,4.39
2023-04-16T20:02:52.466Z,4.45
2023-04-16T20:05:39.549Z,4.40
2023-04-16T20:08:26.557Z,4.33
2023-04-16T20:11:13.815Z,4.29
2023-04-16T20:14:00.718Z,4.25
2023-04-16T20:16:47.730Z,4.20
2023-04-16T20:19:34.570Z,4.15
2023-04-16T20:22:21.658Z,4.10
2023-04-16T20:25:08.598Z,4.05
2023-04-16T20:27:56.029Z,3.97
2023-04-16T20:30:42.937Z,3.97
2023-04-16T20:33:29.935Z,3.91
2023-04-16T20:36:16.761Z,3.89
2023-04-16T20:39:03.730Z,3.83
2023-04-16T20:41:50.609Z,3.79
2023-04-16T20:44:38.053Z,3.68
2023-04-16T20:47:24.915Z,3.71
2023-04-16T20:50:11.960Z,3.66
2023-04-16T20:52:58.984Z,3.62
2023-04-16T20:55:45.978Z,3.56
2023-04-16T20:58:12.831Z,3.51
2023-04-16T21:00:39.740Z,3.46
2023-04-16T21:03:07.267Z,3.43
2023-04-16T21:05:34.460Z,3.39
2023-04-16T21:08:01.390Z,3.35
2023-04-16T21:10:28.480Z,3.31
2023-04-16T21:12:55.695Z,3.28
2023-04-16T21:15:22.515Z,3.25
2023-04-16T21:17:49.545Z,3.21
2023-04-16T21:20:16.665Z,3.18
2023-04-16T21:22:43.562Z,3.13
2023-04-16T21:25:10.846Z,3.11
2023-04-16T21:27:37.861Z,3.06
2023-04-16T21:30:05.199Z,2.98
2023-04-16T21:32:32.131Z,2.94
2023-04-16T21:34:59.105Z,2.89
2023-04-16T21:37:25.988Z,2.92
2023-04-16T21:39:52.952Z,2.83
2023-04-16T21:42:19.930Z,2.85
2023-04-16T21:44:46.860Z,2.74
2023-04-16T21:47:13.797Z,2.77
2023-04-16T21:49:42.339Z,2.74
2023-04-16T21:52:14.495Z,2.71
2023-04-16T21:54:41.506Z,2.68
2023-04-16T21:57:08.436Z,2.66
2023-04-16T21:59:35.459Z,2.47
2023-04-16T22:02:02.437Z,2.59
2023-04-16T22:04:37.435Z,2.09
2023-04-16T22:07:08.907Z,2.32
2023-04-16T22:09:36.373Z,2.36
2023-04-16T22:12:04.068Z,2.13
2023-04-16T22:14:31.955Z,2.45
2023-04-16T22:16:58.944Z,2.42
2023-04-16T22:19:27.428Z,2.32
2023-04-16T22:21:54.366Z,2.10
2023-04-16T22:24:21.363Z,2.33
2023-04-16T22:26:48.369Z,2.27
2023-04-16T22:29:15.645Z,2.25
2023-04-16T22:31:42.546Z,2.22
2023-04-16T22:34:09.459Z,2.19
2023-04-16T22:36:36.504Z,2.13
2023-04-16T22:39:08.469Z,2.06
2023-04-16T22:41:36.068Z,2.09
2023-04-16T22:44:03.615Z,1.99
2023-04-16T22:46:31.117Z,1.99
2023-04-16T22:48:58.290Z,2.05
2023-04-16T22:51:25.460Z,1.52
2023-04-16T22:53:52.564Z,1.94
2023-04-16T22:56:20.169Z,1.88
2023-04-16T22:58:49.329Z,1.88
2023-04-16T23:01:17.064Z,1.89
2023-04-16T23:03:44.144Z,1.91
2023-04-16T23:06:11.203Z,1.93
2023-04-16T23:08:38.167Z,1.94
2023-04-16T23:11:05.345Z,1.95
2023-04-16T23:13:32.447Z,1.00
2023-04-16T23:15:59.464Z,1.94
2023-04-16T23:18:26.605Z,1.94
2023-04-16T23:20:53.904Z,1.67
2023-04-16T23:23:20.990Z,1.98
2023-04-16T23:25:48.051Z,1.97
2023-04-16T23:28:14.936Z,1.98
2023-04-16T23:30:41.959Z,2.00
2023-04-16T23:33:09.023Z,1.99
2023-04-16T23:35:35.938Z,2.01
2023-04-16T23:38:03.352Z,1.97
2023-04-16T23:40:30.509Z,2.01
2023-04-16T23:42:57.381Z,1.98
2023-04-16T23:45:24.586Z,1.60
2023-04-16T23:47:51.761Z,1.98
2023-04-16T23:50:22.169Z,2.06
2023-04-16T23:52:49.210Z,2.06
2023-04-16T23:55:16.378Z,2.07
2023-04-16T23:57:43.265Z,2.09
